Main page
METAR-TAF:

METAR-TAF

Airports :

Cologne, Germany

Cologne Bonn Airport

latitude: 50-52N, longitude: 007-10E, elevation: 91 m

Current weather observation

The report was made 18 minutes ago, at 07:50 UTC
Wind 2 kt from variable directions
Temperature -6°C
Humidity 93%
Pressure 1028 hPa
Visibility 10 km or more
no clouds below 1500 m and no cumulonimbus

METAR: EDDK 040750Z VRB02KT CAVOK M06/M07 Q1028 NOSIG

Time: 09:08 (08:08 UTC)

Forecast

The report was made 3 hours and 8 minutes ago, at 05:00 UTC
Forecast valid from 04 at 06 UTC to 05 at 12 UTC
Wind 6 kt from the East/Southeast
Visibility 10 km or more
no clouds below 1500 m and no cumulonimbus

TAF: EDDK 040500Z 0406/0512 12006KT CAVOK

Weather observations and forecasts of more than 4000 airports (METAR and TAF reports).

The available stations are represented by yellow and red dots on the map.

Hover mouse over dot to see the name of the station.

Then click to see weather observations and forecasts.

To change the map : click on the green buttons with a black cross to zoom in, on the green button with a dash to zoom out, or on the green arrows for adjacent maps.


METAR-TAF: